createdAt,value
2022-11-19T00:01:21.755Z,3.71
2022-11-19T00:03:52.608Z,3.58
2022-11-19T00:06:22.566Z,3.60
2022-11-19T00:08:49.488Z,3.59
2022-11-19T00:11:42.456Z,3.48
2022-11-19T00:14:12.339Z,3.38
2022-11-19T00:16:38.930Z,3.12
2022-11-19T00:19:05.528Z,2.93
2022-11-19T00:21:32.097Z,2.90
2022-11-19T00:23:59.022Z,2.91
2022-11-19T00:26:25.884Z,2.73
2022-11-19T00:28:52.456Z,2.37
2022-11-19T00:31:19.231Z,2.34
2022-11-19T00:33:46.563Z,2.39
2022-11-19T00:36:14.944Z,2.44
2022-11-19T00:38:41.968Z,2.51
2022-11-19T00:41:09.217Z,2.47
2022-11-19T00:43:48.186Z,2.38
2022-11-19T00:46:16.305Z,2.26
2022-11-19T00:48:43.510Z,2.34
2022-11-19T00:51:10.837Z,2.20
2022-11-19T00:53:37.835Z,2.08
2022-11-19T00:56:07.519Z,1.76
2022-11-19T00:58:34.414Z,1.57
2022-11-19T01:01:01.043Z,1.54
2022-11-19T01:03:27.798Z,1.35
2022-11-19T01:05:54.389Z,1.63
2022-11-19T01:08:20.930Z,1.61
2022-11-19T01:10:47.557Z,1.91
2022-11-19T01:13:33.275Z,2.05
2022-11-19T01:15:59.838Z,1.96
2022-11-19T01:18:27.480Z,1.88
2022-11-19T01:20:54.804Z,1.81
2022-11-19T01:23:21.533Z,1.45
2022-11-19T01:25:48.297Z,1.25
2022-11-19T01:28:14.892Z,0.95
2022-11-19T01:30:43.101Z,0.77
2022-11-19T01:33:10.614Z,0.68
2022-11-19T01:35:37.786Z,0.57
2022-11-19T01:38:05.245Z,0.42
2022-11-19T01:40:33.252Z,0.24
2022-11-19T01:42:59.906Z,-0.01
2022-11-19T01:45:34.224Z,-0.02
2022-11-19T01:48:06.421Z,0.02
2022-11-19T01:50:37.148Z,-0.19
2022-11-19T01:53:04.058Z,-0.07
2022-11-19T01:55:31.054Z,-0.31
2022-11-19T01:58:01.632Z,-0.12
2022-11-19T02:00:28.146Z,-0.07
2022-11-19T02:02:55.454Z,-0.11
2022-11-19T02:05:22.851Z,0.29
2022-11-19T02:07:57.586Z,0.09
2022-11-19T02:10:35.315Z,-0.26
2022-11-19T02:13:30.018Z,-0.26
2022-11-19T02:16:07.092Z,-0.34
2022-11-19T02:18:52.384Z,-0.51
2022-11-19T02:21:38.017Z,-0.46
2022-11-19T02:24:24.357Z,-0.61
2022-11-19T02:26:50.891Z,-0.17
2022-11-19T02:29:23.454Z,-0.43
2022-11-19T02:32:01.938Z,-0.68
2022-11-19T02:34:34.394Z,-0.54
2022-11-19T02:37:16.010Z,-0.73
2022-11-19T02:39:57.509Z,-0.59
2022-11-19T02:42:32.262Z,-0.28
2022-11-19T02:45:15.292Z,0.02
2022-11-19T02:47:46.813Z,0.01
2022-11-19T02:50:20.541Z,-0.04
2022-11-19T02:52:48.365Z,0.01
2022-11-19T02:55:18.462Z,-0.06
2022-11-19T02:57:51.631Z,-0.15
2022-11-19T03:00:37.779Z,-0.11
2022-11-19T03:03:35.575Z,-0.06
2022-11-19T03:06:07.256Z,-0.14
2022-11-19T03:08:33.855Z,-0.12
2022-11-19T03:11:36.071Z,-0.15
2022-11-19T03:14:56.385Z,-0.29
2022-11-19T03:17:58.238Z,-0.19
2022-11-19T03:20:44.938Z,-0.03
2022-11-19T03:23:23.952Z,-0.01
2022-11-19T03:25:56.626Z,0.06
2022-11-19T03:28:30.423Z,0.03
2022-11-19T03:30:59.831Z,0.17
2022-11-19T03:33:31.773Z,0.28
2022-11-19T03:36:04.157Z,0.33
2022-11-19T03:38:42.411Z,0.34
2022-11-19T03:41:11.598Z,0.44
2022-11-19T03:43:41.598Z,0.53
2022-11-19T03:46:13.275Z,0.64
2022-11-19T03:48:42.835Z,0.74
2022-11-19T03:51:28.520Z,0.73
2022-11-19T03:53:55.170Z,0.72
2022-11-19T03:56:26.880Z,0.67
2022-11-19T03:58:55.278Z,0.64
2022-11-19T04:01:21.968Z,0.41
2022-11-19T04:04:07.504Z,0.37
2022-11-19T04:06:34.047Z,0.19
2022-11-19T04:09:00.572Z,0.15
2022-11-19T04:13:52.550Z,0.25
2022-11-19T04:16:19.139Z,0.23
2022-11-19T04:18:45.679Z,0.14
2022-11-19T04:21:12.239Z,0.10
2022-11-19T04:23:38.795Z,0.13
2022-11-19T04:26:05.479Z,0.19
2022-11-19T04:28:32.010Z,0.09
2022-11-19T04:30:58.529Z,0.17
2022-11-19T04:33:25.068Z,0.21
2022-11-19T04:35:51.604Z,0.24
2022-11-19T04:38:18.152Z,0.26
2022-11-19T04:40:44.683Z,0.24
2022-11-19T04:43:11.216Z,0.17
2022-11-19T04:45:37.729Z,0.16
2022-11-19T04:48:04.689Z,0.06
2022-11-19T04:50:31.278Z,-0.01
2022-11-19T04:53:00.061Z,-0.01
2022-11-19T04:55:26.677Z,-0.05
2022-11-19T04:57:53.432Z,-0.20
2022-11-19T05:00:20.101Z,-0.28
2022-11-19T05:02:46.625Z,-0.37
2022-11-19T05:05:13.166Z,-0.35
2022-11-19T05:07:39.871Z,-0.25
2022-11-19T05:10:07.568Z,-0.18
2022-11-19T05:12:34.122Z,-0.27
2022-11-19T05:15:00.743Z,-0.15
2022-11-19T05:17:27.262Z,-0.21
2022-11-19T05:19:53.800Z,-0.26
2022-11-19T05:22:20.426Z,-0.26
2022-11-19T05:24:46.971Z,-0.26
2022-11-19T05:27:13.504Z,-0.17
2022-11-19T05:29:40.028Z,-0.17
2022-11-19T05:32:06.568Z,-0.29
2022-11-19T05:34:33.137Z,-0.19
2022-11-19T05:36:59.693Z,-0.31
2022-11-19T05:39:26.335Z,-0.29
2022-11-19T05:41:52.921Z,-0.25
2022-11-19T05:44:19.476Z,-0.08
2022-11-19T05:46:46.026Z,0.05
2022-11-19T05:49:12.570Z,0.08
2022-11-19T05:51:39.131Z,0.12
2022-11-19T05:54:05.840Z,0.10
2022-11-19T05:56:32.381Z,0.06
2022-11-19T05:58:58.958Z,0.03
2022-11-19T06:01:27.132Z,0.08
2022-11-19T06:03:54.103Z,0.12
2022-11-19T06:06:21.317Z,0.21
2022-11-19T06:08:48.409Z,0.37
2022-11-19T06:11:33.603Z,0.44
2022-11-19T06:14:00.955Z,0.43
2022-11-19T06:16:27.923Z,0.47
2022-11-19T06:18:54.730Z,0.48
2022-11-19T06:21:21.330Z,0.43
2022-11-19T06:23:47.918Z,0.57
2022-11-19T06:26:23.450Z,0.57
2022-11-19T06:28:50.038Z,0.65
2022-11-19T06:31:16.763Z,0.77
2022-11-19T06:33:43.290Z,0.80
2022-11-19T06:36:10.122Z,0.87
2022-11-19T06:38:36.680Z,0.76
2022-11-19T06:41:03.579Z,0.74
2022-11-19T06:43:30.145Z,0.71
2022-11-19T06:45:56.663Z,0.57
2022-11-19T06:48:23.281Z,0.50
2022-11-19T06:50:49.812Z,0.67
2022-11-19T06:53:16.522Z,0.74
2022-11-19T06:55:43.057Z,0.93
2022-11-19T06:58:09.604Z,0.69
2022-11-19T07:00:36.887Z,1.03
2022-11-19T07:03:04.148Z,1.35
2022-11-19T07:05:30.686Z,1.53
2022-11-19T07:08:02.598Z,1.59
2022-11-19T07:10:33.866Z,1.88
2022-11-19T07:13:01.419Z,2.08
2022-11-19T07:15:28.001Z,2.00
2022-11-19T07:17:54.652Z,2.26
2022-11-19T07:20:21.212Z,2.12
2022-11-19T07:22:47.747Z,2.08
2022-11-19T07:25:14.406Z,2.11
2022-11-19T07:27:43.350Z,2.09
2022-11-19T07:30:10.603Z,2.08
2022-11-19T07:32:37.181Z,2.06
2022-11-19T07:35:03.881Z,1.79
2022-11-19T07:37:30.503Z,1.81
2022-11-19T07:39:57.118Z,1.86
2022-11-19T07:42:42.207Z,1.84
2022-11-19T07:45:09.815Z,2.01
2022-11-19T07:47:36.489Z,2.08
2022-11-19T07:50:04.220Z,2.23
2022-11-19T07:52:31.571Z,2.39
2022-11-19T07:54:58.133Z,2.55
2022-11-19T07:57:30.444Z,2.28
2022-11-19T07:59:57.431Z,2.43
2022-11-19T08:02:24.049Z,2.54
2022-11-19T08:04:50.628Z,2.83
2022-11-19T08:07:17.247Z,2.73
2022-11-19T08:09:43.880Z,2.95
2022-11-19T08:12:10.501Z,2.60
2022-11-19T08:14:37.082Z,2.68
2022-11-19T08:17:22.334Z,3.22
2022-11-19T08:19:48.946Z,3.71
2022-11-19T08:22:15.556Z,4.96
2022-11-19T08:24:42.115Z,4.84
2022-11-19T08:27:08.672Z,5.70
2022-11-19T08:29:35.238Z,5.17
2022-11-19T08:32:01.817Z,5.41
2022-11-19T08:34:28.467Z,4.99
2022-11-19T08:36:55.081Z,4.16
2022-11-19T08:39:21.671Z,4.70
2022-11-19T08:42:07.484Z,4.70
2022-11-19T08:44:34.099Z,5.11
2022-11-19T08:47:00.642Z,5.16
2022-11-19T08:49:27.238Z,6.07
2022-11-19T08:51:53.866Z,7.87
2022-11-19T08:54:20.777Z,9.91
2022-11-19T08:56:49.798Z,9.66
2022-11-19T08:59:16.340Z,9.74
2022-11-19T09:01:42.894Z,9.04
2022-11-19T09:04:10.097Z,8.24
2022-11-19T09:06:36.645Z,6.31
2022-11-19T09:09:04.580Z,5.53
2022-11-19T09:11:31.317Z,7.27
2022-11-19T09:13:58.666Z,9.49
2022-11-19T09:16:25.402Z,11.22
2022-11-19T09:18:52.458Z,12.92
2022-11-19T09:21:19.215Z,13.20
2022-11-19T09:23:46.107Z,13.96
2022-11-19T09:26:17.956Z,13.37
2022-11-19T09:28:47.192Z,14.64
2022-11-19T09:31:22.376Z,14.96
2022-11-19T09:33:53.689Z,13.67
2022-11-19T09:36:21.076Z,15.12
2022-11-19T09:38:48.702Z,13.58
2022-11-19T09:41:15.195Z,11.31
2022-11-19T09:44:15.049Z,11.84
2022-11-19T09:46:53.099Z,11.17
2022-11-19T09:49:35.468Z,11.19
2022-11-19T09:52:09.280Z,10.43
2022-11-19T09:54:44.341Z,11.20
2022-11-19T09:57:16.525Z,10.99
2022-11-19T09:59:43.075Z,10.81
2022-11-19T10:02:18.089Z,9.87
2022-11-19T10:04:45.587Z,9.94
2022-11-19T10:07:31.100Z,8.12
2022-11-19T10:10:07.760Z,9.64
2022-11-19T10:13:12.083Z,9.79
2022-11-19T10:16:22.435Z,8.69
2022-11-19T10:19:07.248Z,7.04
2022-11-19T10:21:38.397Z,7.97
2022-11-19T10:24:40.433Z,10.23
2022-11-19T10:27:22.931Z,9.46
2022-11-19T10:29:54.842Z,8.76
2022-11-19T10:32:30.439Z,9.59
2022-11-19T10:35:03.236Z,9.49
2022-11-19T10:37:35.736Z,9.17
2022-11-19T10:40:17.667Z,8.67
2022-11-19T10:43:24.780Z,6.48
2022-11-19T10:45:51.588Z,7.70
2022-11-19T10:48:24.324Z,8.30
2022-11-19T10:50:52.381Z,8.14
2022-11-19T10:53:26.633Z,7.73
2022-11-19T10:55:57.090Z,9.27
2022-11-19T10:58:33.468Z,9.74
2022-11-19T11:01:03.286Z,8.62
2022-11-19T11:03:41.999Z,8.63
2022-11-19T11:06:10.167Z,10.18
2022-11-19T11:08:52.310Z,9.94
2022-11-19T11:11:57.909Z,9.76
2022-11-19T11:14:44.040Z,8.47
2022-11-19T11:17:20.211Z,8.93
2022-11-19T11:20:00.510Z,8.58
2022-11-19T11:22:27.488Z,7.65
2022-11-19T11:24:54.670Z,7.82
2022-11-19T11:27:33.520Z,6.61
2022-11-19T11:30:13.254Z,6.98
2022-11-19T11:32:41.305Z,7.95
2022-11-19T11:35:32.777Z,7.84
2022-11-19T11:38:03.749Z,7.95
2022-11-19T11:40:31.290Z,6.32
2022-11-19T11:42:58.308Z,6.86
2022-11-19T11:45:33.997Z,6.61
2022-11-19T11:48:19.763Z,6.73
2022-11-19T11:50:46.976Z,7.09
2022-11-19T11:53:16.432Z,6.95
2022-11-19T11:55:43.726Z,6.05
2022-11-19T11:58:30.707Z,7.01
2022-11-19T12:01:16.053Z,6.75
2022-11-19T12:03:55.953Z,6.20
2022-11-19T12:07:10.370Z,5.74
2022-11-19T12:10:03.340Z,6.57
2022-11-19T12:12:39.063Z,6.86
2022-11-19T12:15:08.702Z,5.63
2022-11-19T12:18:12.730Z,6.20
2022-11-19T12:20:56.665Z,7.12
2022-11-19T12:23:41.436Z,6.90
2022-11-19T12:26:49.075Z,7.06
2022-11-19T12:29:24.996Z,6.37
2022-11-19T12:32:15.898Z,5.80
2022-11-19T12:34:42.546Z,6.39
2022-11-19T12:37:27.704Z,6.54
2022-11-19T12:40:18.403Z,6.03
2022-11-19T12:42:44.834Z,6.26
2022-11-19T12:45:14.245Z,6.24
2022-11-19T12:47:59.739Z,5.68
2022-11-19T12:50:31.890Z,5.63
2022-11-19T12:53:26.110Z,5.75
2022-11-19T12:56:14.029Z,5.60
2022-11-19T12:58:46.565Z,5.35
2022-11-19T13:01:18.479Z,5.18
2022-11-19T13:03:47.687Z,5.27
2022-11-19T13:06:49.969Z,5.15
2022-11-19T13:09:45.024Z,5.19
2022-11-19T13:12:15.645Z,5.18
2022-11-19T13:14:53.389Z,5.52
2022-11-19T13:17:25.969Z,5.29
2022-11-19T13:19:57.878Z,5.29
2022-11-19T13:22:36.544Z,5.25
2022-11-19T13:25:12.747Z,5.32
2022-11-19T13:27:39.520Z,5.01
2022-11-19T13:30:16.001Z,5.05
2022-11-19T13:32:59.853Z,5.07
2022-11-19T13:35:45.740Z,4.95
2022-11-19T13:38:32.079Z,4.99
2022-11-19T13:41:04.487Z,4.62
2022-11-19T13:43:49.685Z,4.55
2022-11-19T13:46:25.841Z,4.53
2022-11-19T13:49:02.197Z,4.37
2022-11-19T13:51:35.084Z,4.29
2022-11-19T13:54:04.257Z,4.37
2022-11-19T13:56:43.992Z,4.19
2022-11-19T13:59:36.871Z,4.15
2022-11-19T14:02:28.344Z,4.07
2022-11-19T14:05:22.450Z,4.17
2022-11-19T14:08:33.845Z,4.12
2022-11-19T14:11:09.129Z,3.98
2022-11-19T14:14:29.614Z,3.83
2022-11-19T14:17:24.051Z,3.69
2022-11-19T14:20:13.598Z,3.54
2022-11-19T14:22:58.649Z,3.36
2022-11-19T14:26:00.852Z,3.29
2022-11-19T14:28:46.087Z,3.16
2022-11-19T14:31:13.603Z,3.08
2022-11-19T14:33:49.297Z,2.99
2022-11-19T14:36:30.978Z,2.94
2022-11-19T14:39:01.499Z,2.87
2022-11-19T14:41:31.081Z,2.82
2022-11-19T14:44:09.922Z,2.82
2022-11-19T14:46:37.857Z,2.76
2022-11-19T14:49:07.020Z,2.64
2022-11-19T14:51:38.802Z,2.63
2022-11-19T14:54:20.562Z,2.54
2022-11-19T14:56:59.505Z,2.44
2022-11-19T14:59:29.373Z,2.40
2022-11-19T15:02:20.646Z,2.33
2022-11-19T15:05:05.475Z,2.36
2022-11-19T15:07:37.106Z,2.40
2022-11-19T15:10:09.922Z,2.40
2022-11-19T15:12:48.173Z,2.32
2022-11-19T15:15:20.821Z,2.18
2022-11-19T15:18:10.325Z,2.22
2022-11-19T15:20:53.494Z,2.21
2022-11-19T15:23:35.486Z,2.18
2022-11-19T15:26:25.929Z,2.01
2022-11-19T15:29:07.528Z,1.99
2022-11-19T15:31:58.451Z,1.89
2022-11-19T15:34:49.137Z,1.87
2022-11-19T15:37:21.350Z,1.85
2022-11-19T15:39:52.565Z,1.88
2022-11-19T15:42:27.385Z,1.76
2022-11-19T15:44:59.334Z,1.76
2022-11-19T15:47:35.074Z,1.66
2022-11-19T15:50:03.323Z,1.58
2022-11-19T15:52:32.058Z,1.63
2022-11-19T15:55:12.969Z,1.52
2022-11-19T15:57:43.819Z,1.48
2022-11-19T16:00:22.021Z,1.36
2022-11-19T16:02:50.894Z,1.38
2022-11-19T16:05:25.106Z,1.40
2022-11-19T16:07:53.288Z,1.36
2022-11-19T16:10:28.076Z,1.38
2022-11-19T16:13:15.578Z,1.39
2022-11-19T16:16:11.290Z,1.40
2022-11-19T16:18:48.149Z,1.38
2022-11-19T16:21:21.345Z,1.43
2022-11-19T16:24:07.189Z,1.41
2022-11-19T16:26:39.215Z,1.48
2022-11-19T16:29:06.413Z,1.46
2022-11-19T16:31:33.139Z,1.51
2022-11-19T16:33:59.713Z,1.62
2022-11-19T16:36:29.846Z,1.56
2022-11-19T16:38:57.492Z,1.62
2022-11-19T16:41:44.152Z,1.58
2022-11-19T16:44:21.528Z,1.65
2022-11-19T16:46:48.650Z,1.57
2022-11-19T16:49:40.118Z,1.56
2022-11-19T16:52:07.768Z,1.56
2022-11-19T16:54:48.064Z,1.52
2022-11-19T16:57:21.487Z,1.51
2022-11-19T16:59:54.765Z,1.43
2022-11-19T17:02:24.676Z,1.48
2022-11-19T17:04:55.515Z,1.30
2022-11-19T17:07:27.830Z,1.38
2022-11-19T17:10:31.200Z,1.29
2022-11-19T17:12:59.805Z,1.22
2022-11-19T17:15:36.815Z,1.25
2022-11-19T17:18:33.328Z,1.32
2022-11-19T17:21:23.351Z,1.32
2022-11-19T17:23:51.744Z,1.25
2022-11-19T17:26:22.221Z,1.30
2022-11-19T17:28:52.179Z,1.18
2022-11-19T17:31:24.465Z,1.20
2022-11-19T17:34:19.276Z,1.18
2022-11-19T17:36:46.195Z,1.15
2022-11-19T17:39:14.752Z,1.17
2022-11-19T17:42:02.051Z,1.16
2022-11-19T17:44:36.499Z,1.13
2022-11-19T17:47:22.304Z,1.09
2022-11-19T17:49:50.492Z,1.14
2022-11-19T17:52:24.463Z,1.15
2022-11-19T17:54:52.979Z,1.15
2022-11-19T17:57:19.548Z,1.04
2022-11-19T17:59:46.312Z,1.16
2022-11-19T18:02:17.587Z,1.12
2022-11-19T18:04:45.366Z,1.10
2022-11-19T18:07:12.654Z,1.14
2022-11-19T18:09:40.299Z,1.02
2022-11-19T18:12:12.675Z,1.02
2022-11-19T18:14:39.205Z,1.12
2022-11-19T18:17:05.828Z,1.12
2022-11-19T18:19:32.474Z,0.94
2022-11-19T18:21:59.059Z,0.99
2022-11-19T18:24:25.685Z,0.97
2022-11-19T18:26:52.274Z,1.09
2022-11-19T18:29:19.197Z,0.93
2022-11-19T18:31:49.244Z,1.06
2022-11-19T18:34:23.748Z,1.02
2022-11-19T18:36:50.804Z,0.97
2022-11-19T18:39:17.401Z,1.00
2022-11-19T18:41:44.000Z,0.96
2022-11-19T18:44:32.184Z,0.99
2022-11-19T18:47:02.992Z,0.96
2022-11-19T18:49:29.917Z,0.92
2022-11-19T18:51:56.715Z,0.86
2022-11-19T18:54:23.283Z,0.84
2022-11-19T18:56:50.017Z,0.87
2022-11-19T18:59:16.556Z,0.88
2022-11-19T19:01:43.240Z,0.78
2022-11-19T19:04:14.329Z,0.65
2022-11-19T19:06:41.647Z,0.78
2022-11-19T19:09:10.381Z,0.61
2022-11-19T19:11:56.713Z,0.65
2022-11-19T19:14:23.281Z,0.69
2022-11-19T19:16:50.965Z,0.68
2022-11-19T19:19:20.333Z,0.63
2022-11-19T19:21:47.649Z,0.57
2022-11-19T19:24:14.553Z,0.64
2022-11-19T19:26:41.227Z,0.62
2022-11-19T19:29:08.136Z,0.57
2022-11-19T19:31:35.210Z,0.61
2022-11-19T19:34:02.026Z,0.66
2022-11-19T19:36:28.682Z,0.64
2022-11-19T19:38:55.379Z,0.68
2022-11-19T19:41:25.339Z,0.64
2022-11-19T19:43:53.671Z,0.69
2022-11-19T19:46:22.645Z,0.69
2022-11-19T19:48:52.141Z,0.66
2022-11-19T19:51:20.809Z,0.64
2022-11-19T19:53:50.284Z,0.72
2022-11-19T19:56:19.456Z,0.64
2022-11-19T19:58:47.959Z,0.63
2022-11-19T20:01:36.262Z,0.71
2022-11-19T20:04:07.616Z,0.70
2022-11-19T20:06:36.258Z,0.71
2022-11-19T20:09:08.799Z,0.76
2022-11-19T20:11:37.132Z,0.70
2022-11-19T20:14:05.205Z,0.75
2022-11-19T20:16:33.923Z,0.83
2022-11-19T20:19:01.457Z,0.73
2022-11-19T20:21:31.710Z,0.75
2022-11-19T20:23:58.582Z,0.68
2022-11-19T20:26:28.979Z,0.66
2022-11-19T20:29:00.884Z,0.71
2022-11-19T20:31:28.966Z,0.60
2022-11-19T20:33:58.180Z,0.63
2022-11-19T20:36:26.355Z,0.65
2022-11-19T20:38:53.373Z,0.66
2022-11-19T20:41:40.404Z,0.77
2022-11-19T20:44:22.360Z,0.59
2022-11-19T20:46:59.729Z,0.62
2022-11-19T20:49:29.094Z,0.61
2022-11-19T20:51:56.249Z,0.61
2022-11-19T20:54:23.991Z,0.61
2022-11-19T20:56:52.389Z,0.52
2022-11-19T20:59:19.888Z,0.61
2022-11-19T21:01:49.414Z,0.60
2022-11-19T21:04:16.316Z,0.58
2022-11-19T21:06:42.997Z,0.57
2022-11-19T21:09:11.983Z,0.59
2022-11-19T21:11:38.768Z,0.64
2022-11-19T21:14:05.468Z,0.57
2022-11-19T21:16:32.878Z,0.55
2022-11-19T21:19:00.728Z,0.61
2022-11-19T21:21:27.757Z,0.60
2022-11-19T21:23:54.879Z,0.59
2022-11-19T21:26:23.562Z,0.59
2022-11-19T21:28:52.726Z,0.57
2022-11-19T21:31:22.105Z,0.49
2022-11-19T21:33:49.237Z,0.46
2022-11-19T21:36:15.904Z,0.45
2022-11-19T21:38:42.489Z,0.46
2022-11-19T21:41:11.268Z,0.44
2022-11-19T21:43:37.885Z,0.45
2022-11-19T21:46:07.322Z,0.44
2022-11-19T21:48:33.985Z,0.42
2022-11-19T21:51:06.351Z,0.46
2022-11-19T21:53:35.370Z,0.47
2022-11-19T21:56:02.311Z,0.40
2022-11-19T21:58:28.962Z,0.43
2022-11-19T22:00:59.863Z,0.42
2022-11-19T22:03:30.092Z,0.43
2022-11-19T22:06:12.095Z,0.41
2022-11-19T22:08:40.702Z,0.48
2022-11-19T22:11:27.114Z,0.45
2022-11-19T22:13:54.152Z,0.42
2022-11-19T22:16:21.923Z,0.39
2022-11-19T22:18:48.856Z,0.47
2022-11-19T22:21:15.764Z,0.43
2022-11-19T22:23:44.820Z,0.42
2022-11-19T22:26:12.768Z,0.48
2022-11-19T22:28:39.841Z,0.40
2022-11-19T22:31:06.449Z,0.38
2022-11-19T22:33:35.701Z,0.40
2022-11-19T22:36:09.487Z,0.41
2022-11-19T22:38:37.887Z,0.28
2022-11-19T22:41:08.875Z,0.32
2022-11-19T22:43:39.332Z,0.25
2022-11-19T22:46:08.548Z,0.34
2022-11-19T22:48:35.716Z,0.34
2022-11-19T22:51:11.812Z,0.32
2022-11-19T22:53:38.895Z,0.32
2022-11-19T22:56:07.975Z,0.31
2022-11-19T22:58:36.142Z,0.28
2022-11-19T23:01:03.304Z,0.29
2022-11-19T23:03:34.618Z,0.31
2022-11-19T23:06:01.272Z,0.27
2022-11-19T23:08:30.337Z,0.40
2022-11-19T23:10:59.249Z,0.37
2022-11-19T23:13:34.484Z,0.39
2022-11-19T23:16:01.045Z,0.40
2022-11-19T23:18:28.398Z,0.42
2022-11-19T23:21:01.053Z,0.40
2022-11-19T23:23:27.788Z,0.38
2022-11-19T23:25:59.804Z,0.36
2022-11-19T23:28:28.079Z,0.35
2022-11-19T23:30:54.895Z,0.38
2022-11-19T23:33:23.970Z,0.32
2022-11-19T23:35:50.628Z,0.40
2022-11-19T23:38:17.214Z,0.37
2022-11-19T23:40:43.800Z,0.41
2022-11-19T23:43:10.343Z,0.39
2022-11-19T23:45:36.913Z,0.37
2022-11-19T23:48:04.202Z,0.42
2022-11-19T23:50:30.845Z,0.47
2022-11-19T23:52:57.394Z,0.47
2022-11-19T23:55:23.985Z,0.43
2022-11-19T23:57:50.542Z,0.43
